Time;durP1;ratioP1;P1;durP2;ratioP2;P2;SDS_P1;SDS_P2;PMS_P1;PMS_P2;Temp;Humidity;BMP_temperature;BMP_pressure;BME280_temperature;BME280_humidity;BME280_pressure;Samples;Min_cycle;Max_cycle;Signal;HPM_P1;HPM_P2
2023/10/16 00:01:14;;;;;;;1.87;0.50;;;8.20;61.10;;;;;;2223828;56;20125;-68
2023/10/16 00:03:42;;;;;;;1.35;0.55;;;8.20;61.90;;;;;;2238559;55;21063;-68
2023/10/16 00:06:12;;;;;;;2.08;0.70;;;8.20;61.90;;;;;;2218896;55;21891;-70
2023/10/16 00:08:48;;;;;;;1.17;0.60;;;8.20;62.00;;;;;;2463763;55;21025;-66
2023/10/16 00:11:16;;;;;;;2.37;0.70;;;8.10;61.90;;;;;;2469009;55;20970;-67
2023/10/16 00:13:49;;;;;;;1.73;0.70;;;8.10;62.00;;;;;;2207810;55;21058;-66
2023/10/16 00:16:19;;;;;;;1.67;0.80;;;8.10;61.90;;;;;;2463879;54;21431;-66
2023/10/16 00:18:50;;;;;;;1.83;0.70;;;8.10;62.20;;;;;;2440356;55;20954;-70
2023/10/16 00:21:17;;;;;;;2.60;0.80;;;8.10;62.20;;;;;;2218749;55;22349;-66
2023/10/16 00:23:45;;;;;;;1.75;0.65;;;8.10;62.10;;;;;;2213051;56;20941;-67
2023/10/16 00:26:21;;;;;;;2.35;0.77;;;8.00;62.00;;;;;;2480388;55;21443;-67
2023/10/16 00:28:52;;;;;;;2.05;0.80;;;8.00;62.00;;;;;;2248826;54;21718;-65
2023/10/16 00:31:21;;;;;;;1.73;0.60;;;8.00;62.10;;;;;;2476264;55;21105;-67
2023/10/16 00:33:48;;;;;;;3.22;1.10;;;8.00;62.10;;;;;;2250286;55;21046;-67
2023/10/16 00:36:15;;;;;;;1.33;0.60;;;8.00;62.10;;;;;;2255823;55;20990;-67
2023/10/16 00:38:41;;;;;;;1.05;0.50;;;7.90;62.00;;;;;;2477617;55;20970;-67
2023/10/16 00:41:17;;;;;;;1.60;0.70;;;7.90;62.10;;;;;;2486025;55;21097;-67
2023/10/16 00:43:44;;;;;;;3.37;0.82;;;7.90;62.10;;;;;;2485689;54;20962;-68
2023/10/16 00:46:14;;;;;;;2.80;0.90;;;7.90;62.10;;;;;;2250175;54;21003;-69
2023/10/16 00:48:41;;;;;;;1.90;0.80;;;7.90;62.20;;;;;;2255460;55;21019;-66
2023/10/16 00:51:13;;;;;;;2.20;0.77;;;7.90;62.30;;;;;;2245476;54;21032;-69
2023/10/16 00:53:43;;;;;;;3.53;0.90;;;7.90;62.40;;;;;;2251489;55;20998;-67
2023/10/16 00:56:14;;;;;;;2.42;0.90;;;7.90;62.40;;;;;;2475631;54;21006;-68
2023/10/16 00:58:40;;;;;;;2.20;0.80;;;7.80;62.30;;;;;;2476525;54;21057;-70
2023/10/16 01:01:12;;;;;;;2.28;0.85;;;7.80;62.30;;;;;;2254973;56;21996;-66
2023/10/16 01:03:41;;;;;;;2.37;0.90;;;7.80;62.30;;;;;;2481463;54;21045;-68
2023/10/16 01:06:16;;;;;;;2.40;0.90;;;7.80;62.20;;;;;;2484662;55;21017;-67
2023/10/16 01:08:46;;;;;;;2.00;0.90;;;7.80;62.20;;;;;;2488457;54;21622;-69
2023/10/16 01:11:14;;;;;;;2.33;0.90;;;7.80;62.10;;;;;;2485768;54;21033;-69
2023/10/16 01:13:41;;;;;;;2.53;0.90;;;7.70;62.20;;;;;;2260794;55;20962;-71
2023/10/16 01:16:09;;;;;;;2.03;0.80;;;7.70;62.20;;;;;;2489954;54;21021;-69
2023/10/16 01:18:37;;;;;;;1.87;0.90;;;7.70;62.30;;;;;;2265046;55;20966;-67
2023/10/16 01:21:05;;;;;;;2.45;0.98;;;7.70;62.30;;;;;;2260585;56;21887;-67
2023/10/16 01:23:34;;;;;;;4.00;1.50;;;7.70;62.30;;;;;;2497586;54;20962;-67
2023/10/16 01:26:01;;;;;;;1.98;0.90;;;7.70;62.30;;;;;;2263472;55;20977;-69
2023/10/16 01:28:27;;;;;;;4.15;1.10;;;7.60;62.30;;;;;;2260947;56;20969;-70
2023/10/16 01:30:54;;;;;;;3.35;1.10;;;7.70;62.40;;;;;;2260242;55;21564;-67
2023/10/16 01:33:23;;;;;;;2.80;1.17;;;7.60;62.50;;;;;;2262180;54;20959;-69
2023/10/16 01:35:52;;;;;;;2.35;0.98;;;7.60;62.40;;;;;;2486546;55;21038;-65
2023/10/16 01:38:19;;;;;;;3.15;1.45;;;7.60;62.40;;;;;;2261245;56;21013;-68
2023/10/16 01:41:04;;;;;;;2.65;1.27;;;7.50;62.30;;;;;;2262950;56;21884;-70
2023/10/16 01:43:32;;;;;;;3.25;1.20;;;7.50;62.30;;;;;;2493686;54;20973;-67
2023/10/16 01:46:08;;;;;;;3.03;1.30;;;7.50;62.40;;;;;;2264348;55;21207;-68
2023/10/16 01:48:44;;;;;;;3.28;1.17;;;7.50;62.40;;;;;;2267790;56;20966;-70
2023/10/16 01:51:11;;;;;;;2.60;1.10;;;7.50;62.40;;;;;;2274157;55;20993;-68
2023/10/16 01:53:39;;;;;;;3.40;1.20;;;7.50;62.60;;;;;;2273517;54;20991;-66
2023/10/16 01:56:12;;;;;;;3.12;1.17;;;7.50;62.60;;;;;;2504990;54;21564;-68
2023/10/16 01:58:46;;;;;;;3.12;1.40;;;7.40;62.70;;;;;;2275666;55;21010;-70
2023/10/16 02:01:13;;;;;;;3.33;1.17;;;7.40;62.70;;;;;;2517919;55;21010;-67
2023/10/16 02:03:45;;;;;;;2.50;1.10;;;7.40;62.80;;;;;;2514502;55;20998;-70
2023/10/16 02:06:11;;;;;;;;;;;7.40;62.80;;;;;;2286472;55;22382;-66
2023/10/16 02:08:40;;;;;;;2.00;0.90;;;7.40;61.90;;;;;;2517498;54;20124;-69
2023/10/16 02:11:07;;;;;;;2.67;1.05;;;7.40;62.70;;;;;;2518019;54;21117;-66
2023/10/16 02:13:35;;;;;;;3.60;1.30;;;7.40;62.80;;;;;;2284996;55;21633;-66
2023/10/16 02:16:06;;;;;;;2.85;1.30;;;7.30;63.50;;;;;;2283546;56;20990;-67
2023/10/16 02:18:40;;;;;;;2.75;1.05;;;7.30;62.90;;;;;;2284476;56;21000;-68
2023/10/16 02:21:11;;;;;;;1.90;0.88;;;7.30;62.90;;;;;;2517379;54;21012;-67
2023/10/16 02:23:39;;;;;;;2.67;1.02;;;7.30;63.00;;;;;;2517241;54;21089;-68
2023/10/16 02:26:07;;;;;;;5.22;1.35;;;7.30;63.00;;;;;;2517706;55;21207;-66
2023/10/16 02:28:33;;;;;;;2.35;1.00;;;7.30;63.00;;;;;;2519403;54;20966;-69
2023/10/16 02:31:16;;;;;;;2.10;0.80;;;7.30;63.10;;;;;;2300665;55;21741;-69
2023/10/16 02:33:50;;;;;;;2.67;0.90;;;7.30;63.00;;;;;;2518243;54;21829;-69
2023/10/16 02:36:19;;;;;;;2.78;1.15;;;7.30;63.00;;;;;;2518087;55;21625;-67
2023/10/16 02:38:50;;;;;;;3.15;1.00;;;7.30;63.00;;;;;;2284010;56;21033;-67
2023/10/16 02:41:19;;;;;;;2.17;0.90;;;7.20;62.90;;;;;;2284957;55;20961;-66
2023/10/16 02:43:47;;;;;;;1.80;0.80;;;7.20;62.90;;;;;;2284243;55;21013;-66
2023/10/16 02:46:14;;;;;;;3.05;1.00;;;7.20;62.90;;;;;;2517543;55;21438;-67
2023/10/16 02:48:41;;;;;;;1.95;0.90;;;7.20;62.90;;;;;;2284582;56;20945;-70
2023/10/16 02:51:09;;;;;;;2.85;1.10;;;7.20;63.00;;;;;;2515803;55;21493;-68
2023/10/16 02:53:36;;;;;;;2.25;1.10;;;7.20;62.90;;;;;;2285155;56;20973;-69
2023/10/16 02:56:05;;;;;;;2.83;1.05;;;7.20;62.90;;;;;;2283865;55;21034;-71
2023/10/16 02:58:31;;;;;;;3.75;1.10;;;7.20;62.90;;;;;;2514797;55;21090;-67
2023/10/16 03:00:59;;;;;;;2.22;0.95;;;7.10;62.90;;;;;;2280542;56;20962;-67
2023/10/16 03:03:26;;;;;;;2.33;0.98;;;7.20;63.00;;;;;;2280842;55;20958;-67
2023/10/16 03:05:55;;;;;;;2.28;1.00;;;7.10;63.00;;;;;;2279908;55;21021;-68
2023/10/16 03:08:22;;;;;;;2.10;0.80;;;7.10;63.00;;;;;;2514351;55;21089;-67
2023/10/16 03:10:49;;;;;;;2.95;0.85;;;7.10;62.90;;;;;;2281020;56;20985;-67
2023/10/16 03:13:15;;;;;;;2.83;0.90;;;7.10;62.90;;;;;;2514127;55;21029;-69
2023/10/16 03:15:46;;;;;;;2.72;1.10;;;7.10;62.80;;;;;;2513756;55;21089;-68
2023/10/16 03:18:22;;;;;;;2.83;1.08;;;6.90;62.60;;;;;;2513933;55;20974;-68
2023/10/16 03:21:05;;;;;;;2.83;1.08;;;7.00;62.70;;;;;;2500336;55;20954;-69
2023/10/16 03:23:31;;;;;;;2.15;1.00;;;7.00;62.70;;;;;;2270043;55;20994;-71
2023/10/16 03:25:59;;;;;;;2.20;1.00;;;7.00;62.70;;;;;;2492040;55;20966;-65
2023/10/16 03:28:26;;;;;;;4.37;1.12;;;7.00;62.90;;;;;;2262331;55;20972;-65
2023/10/16 03:30:58;;;;;;;2.95;1.30;;;6.90;62.80;;;;;;2486722;55;21969;-73
2023/10/16 03:33:27;;;;;;;2.43;1.03;;;6.90;62.90;;;;;;2487202;55;20978;-66
2023/10/16 03:35:53;;;;;;;2.28;1.00;;;6.90;62.90;;;;;;2479126;54;21580;-69
2023/10/16 03:38:27;;;;;;;2.65;1.10;;;6.90;62.90;;;;;;2235834;55;21065;-69
2023/10/16 03:40:56;;;;;;;4.00;1.30;;;6.90;63.00;;;;;;2245860;55;21009;-70
2023/10/16 03:43:26;;;;;;;3.37;1.20;;;6.90;63.10;;;;;;2230254;55;21088;-68
2023/10/16 03:45:53;;;;;;;4.12;1.10;;;6.90;63.10;;;;;;2229897;54;20984;-67
2023/10/16 03:48:20;;;;;;;3.20;1.17;;;6.90;63.30;;;;;;2448607;54;21002;-67
2023/10/16 03:50:53;;;;;;;2.67;1.00;;;6.90;63.20;;;;;;2227704;54;20967;-66
2023/10/16 03:53:20;;;;;;;2.85;1.00;;;6.90;63.10;;;;;;2441492;54;21592;-67
2023/10/16 03:55:49;;;;;;;3.03;1.10;;;6.90;63.20;;;;;;2221737;55;21165;-68
2023/10/16 03:58:19;;;;;;;2.60;0.93;;;6.90;63.10;;;;;;2440580;55;21023;-67
2023/10/16 04:00:56;;;;;;;4.12;1.40;;;6.90;63.10;;;;;;2205724;55;21765;-67
2023/10/16 04:03:25;;;;;;;2.85;1.10;;;6.80;62.80;;;;;;2450445;54;21085;-66
2023/10/16 04:05:54;;;;;;;3.50;1.27;;;6.80;63.10;;;;;;2218889;55;21050;-67
2023/10/16 04:08:25;;;;;;;3.00;1.02;;;6.80;63.20;;;;;;2463720;54;21057;-68
2023/10/16 04:10:56;;;;;;;2.60;1.15;;;6.80;63.30;;;;;;2478154;55;21466;-69
2023/10/16 04:13:32;;;;;;;2.72;1.05;;;6.80;63.30;;;;;;2248108;55;20970;-66
2023/10/16 04:16:08;;;;;;;2.85;1.00;;;6.80;63.30;;;;;;2482395;55;20975;-68
2023/10/16 04:18:39;;;;;;;2.92;1.00;;;6.70;63.20;;;;;;2483065;55;20966;-67
2023/10/16 04:24:30;;;;;;;2.62;1.10;;;6.80;63.20;;;;;;2243873;55;20977;-66
2023/10/16 04:27:29;;;;;;;2.37;0.90;;;6.80;63.20;;;;;;2248323;56;20974;-67
2023/10/16 04:33:27;;;;;;;2.70;1.37;;;6.70;63.00;;;;;;2241965;55;21014;-70
2023/10/16 04:36:52;;;;;;;3.35;1.20;;;6.70;63.10;;;;;;2197934;56;21634;-69
2023/10/16 04:43:37;;;;;;;1.83;0.88;;;6.70;63.10;;;;;;2386442;54;21799;-66
2023/10/16 04:47:07;;;;;;;2.15;0.90;;;6.70;63.00;;;;;;2100301;54;21010;-68
2023/10/16 04:49:38;;;;;;;2.25;1.05;;;6.70;63.20;;;;;;2084121;55;21022;-70
2023/10/16 04:52:23;;;;;;;3.58;1.85;;;6.70;63.10;;;;;;2090974;55;20981;-66
2023/10/16 04:55:01;;;;;;;4.37;2.67;;;6.70;62.90;;;;;;2112617;55;21748;-66
2023/10/16 04:57:47;;;;;;;4.28;2.78;;;6.70;62.90;;;;;;2132792;55;21876;-68
2023/10/16 05:00:54;;;;;;;5.30;2.20;;;6.60;63.10;;;;;;2353037;54;21013;-69
2023/10/16 05:03:23;;;;;;;3.22;1.95;;;6.70;63.10;;;;;;2382702;54;22351;-66
2023/10/16 05:05:56;;;;;;;2.92;1.50;;;6.60;62.90;;;;;;2194823;55;22314;-66
2023/10/16 05:20:15;;;;;;;2.58;1.30;;;6.50;63.00;;;;;;2426864;55;22097;-66
2023/10/16 06:14:12;;;;;;;3.30;1.70;;;6.00;63.30;;;;;;2444870;55;20945;-66
2023/10/16 06:16:45;;;;;;;3.22;1.92;;;6.10;63.60;;;;;;2479025;54;21764;-70
2023/10/16 06:19:15;;;;;;;2.90;1.60;;;6.20;63.70;;;;;;2261222;56;21042;-66
2023/10/16 06:21:52;;;;;;;3.60;2.03;;;6.20;63.80;;;;;;2272061;55;20985;-68
2023/10/16 06:24:25;;;;;;;2.78;1.60;;;6.20;63.80;;;;;;2266922;55;20974;-66
2023/10/16 06:27:01;;;;;;;4.03;1.80;;;6.20;63.90;;;;;;2507025;55;21081;-67
2023/10/16 06:29:41;;;;;;;3.62;2.20;;;6.20;63.80;;;;;;2506206;55;21919;-68
2023/10/16 06:32:07;;;;;;;3.65;1.90;;;6.20;63.90;;;;;;2510927;54;21051;-70
2023/10/16 06:34:35;;;;;;;4.25;2.40;;;6.20;64.00;;;;;;2473537;55;20954;-69
2023/10/16 06:37:09;;;;;;;3.62;2.00;;;6.20;64.00;;;;;;2505710;55;21081;-68
2023/10/16 06:39:35;;;;;;;3.83;2.08;;;6.20;64.10;;;;;;2501325;55;21740;-66
2023/10/16 06:42:03;;;;;;;3.65;2.12;;;6.20;64.20;;;;;;2495911;55;21057;-70
2023/10/16 06:44:34;;;;;;;4.43;2.30;;;6.20;64.30;;;;;;2264209;55;21879;-66
2023/10/16 06:47:00;;;;;;;4.47;2.40;;;6.30;64.40;;;;;;2487880;55;21830;-65
2023/10/16 06:49:37;;;;;;;3.72;2.00;;;6.30;64.40;;;;;;2257089;55;20962;-70
2023/10/16 06:52:12;;;;;;;4.03;2.40;;;6.30;64.50;;;;;;2244643;55;21070;-66
2023/10/16 06:54:39;;;;;;;3.60;2.25;;;6.30;64.40;;;;;;2469396;55;20973;-68
2023/10/16 06:57:12;;;;;;;4.12;2.50;;;6.40;64.50;;;;;;2233786;56;21006;-66
2023/10/16 06:59:44;;;;;;;3.78;2.53;;;6.40;64.50;;;;;;2460642;55;21431;-67
2023/10/16 07:02:20;;;;;;;5.03;2.70;;;6.40;64.50;;;;;;2440397;55;21620;-69
2023/10/16 07:05:14;;;;;;;4.53;2.55;;;6.40;64.50;;;;;;2211785;55;21038;-70
2023/10/16 07:07:41;;;;;;;4.30;2.55;;;6.50;64.70;;;;;;2433247;55;21807;-67
2023/10/16 07:10:13;;;;;;;6.05;3.20;;;6.30;64.40;;;;;;2194981;56;20970;-70
2023/10/16 07:13:26;;;;;;;4.75;2.97;;;6.50;64.90;;;;;;2409358;55;20965;-71
2023/10/16 07:16:03;;;;;;;6.45;4.18;;;6.60;64.80;;;;;;2409107;55;21514;-67
2023/10/16 07:18:35;;;;;;;7.28;4.72;;;6.70;65.20;;;;;;2424402;54;22240;-69
2023/10/16 07:21:07;;;;;;;5.40;3.65;;;6.70;65.30;;;;;;2416531;55;22185;-66
2023/10/16 07:23:35;;;;;;;5.72;3.20;;;6.80;65.60;;;;;;2190310;55;21096;-68
2023/10/16 07:26:09;;;;;;;3.70;2.17;;;6.80;65.60;;;;;;2414379;55;21001;-70
2023/10/16 07:28:35;;;;;;;3.85;2.47;;;6.90;65.70;;;;;;2402570;55;21063;-70
2023/10/16 07:31:02;;;;;;;3.95;1.92;;;7.00;65.80;;;;;;2410681;55;22709;-66
2023/10/16 07:33:29;;;;;;;3.35;1.80;;;7.00;65.90;;;;;;2192849;56;21462;-70
2023/10/16 07:35:56;;;;;;;3.15;1.50;;;7.10;66.00;;;;;;2420314;54;21560;-69
2023/10/16 07:38:25;;;;;;;2.78;1.50;;;7.20;66.20;;;;;;2208710;55;20982;-67
2023/10/16 07:40:56;;;;;;;4.12;1.52;;;7.30;66.40;;;;;;2231518;54;20966;-66
2023/10/16 07:43:29;;;;;;;2.87;1.25;;;7.30;66.40;;;;;;2242786;55;21036;-68
2023/10/16 07:46:27;;;;;;;3.42;1.42;;;7.40;66.60;;;;;;2222382;55;21069;-71
2023/10/16 07:49:15;;;;;;;4.33;1.83;;;7.50;66.80;;;;;;2482948;55;21050;-70
2023/10/16 07:51:45;;;;;;;2.92;1.25;;;7.60;66.80;;;;;;2257255;55;21478;-67
2023/10/16 07:54:11;;;;;;;3.78;1.60;;;7.60;66.80;;;;;;2264486;55;20974;-67
2023/10/16 07:56:38;;;;;;;3.50;1.48;;;7.70;66.90;;;;;;2268492;56;21427;-68
2023/10/16 07:59:06;;;;;;;3.20;1.60;;;7.80;67.00;;;;;;2271136;55;21017;-66
2023/10/16 08:01:42;;;;;;;2.92;1.23;;;7.80;67.00;;;;;;2505630;55;21441;-68
2023/10/16 08:08:36;;;;;;;3.30;1.58;;;8.00;67.00;;;;;;2282147;55;20966;-68
2023/10/16 08:11:18;;;;;;;4.30;1.95;;;8.10;66.90;;;;;;2514192;55;21041;-65
2023/10/16 08:13:46;;;;;;;3.20;1.50;;;8.20;67.00;;;;;;2513094;55;20954;-71
2023/10/16 08:16:19;;;;;;;3.33;1.55;;;8.20;67.00;;;;;;2281574;55;20982;-69
2023/10/16 08:18:47;;;;;;;3.60;1.77;;;8.30;67.10;;;;;;2281439;55;20965;-70
2023/10/16 08:21:26;;;;;;;3.47;1.87;;;8.40;67.20;;;;;;2513252;55;21522;-67
2023/10/16 08:23:56;;;;;;;3.65;1.85;;;8.40;67.20;;;;;;2504034;55;20971;-68
2023/10/16 08:26:28;;;;;;;3.15;1.50;;;8.50;67.40;;;;;;2514287;55;21588;-68
2023/10/16 08:28:55;;;;;;;;;;;8.60;67.50;;;;;;2284612;56;20950;-67
2023/10/16 08:31:23;;;;;;;4.70;1.90;;;8.70;66.80;;;;;;2514188;55;20079;-70
2023/10/16 08:33:50;;;;;;;4.45;2.40;;;8.70;67.50;;;;;;2513830;55;21756;-66
2023/10/16 08:36:18;;;;;;;4.18;2.05;;;8.80;67.80;;;;;;2282143;55;21014;-70
2023/10/16 08:38:51;;;;;;;4.82;2.10;;;8.90;68.00;;;;;;2514276;55;20942;-71
2023/10/16 08:42:01;;;;;;;3.65;1.60;;;9.00;68.00;;;;;;2281806;55;20990;-67
2023/10/16 08:44:30;;;;;;;3.67;1.55;;;9.00;67.80;;;;;;2513759;55;20974;-67
2023/10/16 08:49:53;;;;;;;3.62;1.80;;;9.20;68.20;;;;;;2513130;55;20986;-69
2023/10/16 08:52:23;;;;;;;3.72;1.48;;;9.10;68.00;;;;;;2513700;55;20977;-67
2023/10/16 08:57:26;;;;;;;3.55;1.80;;;9.50;68.20;;;;;;2514358;55;21041;-68
2023/10/16 08:59:52;;;;;;;2.75;1.35;;;9.60;68.20;;;;;;2281492;56;21110;-71
2023/10/16 09:02:25;;;;;;;3.40;1.65;;;9.60;68.20;;;;;;2281457;55;20986;-68
2023/10/16 09:04:52;;;;;;;3.45;1.70;;;9.70;68.10;;;;;;2281344;55;21021;-66
2023/10/16 09:07:19;;;;;;;3.10;1.83;;;9.80;68.20;;;;;;2514679;55;21582;-66
2023/10/16 09:09:48;;;;;;;3.72;1.85;;;9.90;68.20;;;;;;2513946;55;21309;-66
2023/10/16 09:12:26;;;;;;;4.28;2.20;;;9.90;68.20;;;;;;2281503;55;21001;-69
2023/10/16 09:14:52;;;;;;;4.10;2.22;;;10.00;67.10;;;;;;2511447;55;20969;-71
2023/10/16 09:17:23;;;;;;;3.50;1.80;;;10.10;67.00;;;;;;2505514;55;20976;-66
2023/10/16 09:19:50;;;;;;;3.78;2.00;;;10.20;67.20;;;;;;2274996;55;21054;-69
2023/10/16 09:22:28;;;;;;;4.00;2.03;;;10.30;67.30;;;;;;2514282;55;20994;-68
2023/10/16 09:24:55;;;;;;;3.83;1.80;;;10.30;67.30;;;;;;2281287;55;20966;-66
2023/10/16 09:27:31;;;;;;;3.62;1.87;;;10.40;67.40;;;;;;2506930;54;21027;-67
2023/10/16 09:30:02;;;;;;;2.95;1.65;;;10.50;67.30;;;;;;2512310;55;20970;-71
2023/10/16 09:32:36;;;;;;;4.65;1.95;;;10.60;67.50;;;;;;2514467;54;21396;-67
2023/10/16 09:35:11;;;;;;;4.50;2.15;;;10.70;67.50;;;;;;2281307;55;20953;-67
2023/10/16 09:37:41;;;;;;;3.78;1.80;;;10.80;67.50;;;;;;2280828;55;20974;-70
2023/10/16 09:40:19;;;;;;;3.97;1.95;;;10.80;67.50;;;;;;2281608;56;20974;-68
2023/10/16 09:43:08;;;;;;;3.60;1.87;;;10.90;67.30;;;;;;2514419;55;21024;-67
2023/10/16 09:45:35;;;;;;;4.20;2.12;;;11.00;67.60;;;;;;2513941;55;21121;-67
2023/10/16 09:48:08;;;;;;;5.37;2.17;;;11.10;67.60;;;;;;2281838;56;20970;-66
2023/10/16 09:50:38;;;;;;;3.83;1.92;;;11.20;67.30;;;;;;2280825;55;21057;-67
2023/10/16 09:53:10;;;;;;;3.75;2.00;;;11.30;67.50;;;;;;2281541;55;20962;-67
2023/10/16 09:55:38;;;;;;;4.00;2.20;;;11.40;67.40;;;;;;2280722;56;21490;-71
2023/10/16 09:58:07;;;;;;;4.85;2.17;;;11.50;67.70;;;;;;2281711;55;21030;-67
2023/10/16 10:00:34;;;;;;;4.10;2.20;;;11.50;67.30;;;;;;2503824;54;21047;-67
2023/10/16 10:03:13;;;;;;;4.57;2.30;;;11.60;67.50;;;;;;2281589;55;21014;-68
2023/10/16 10:09:22;;;;;;;3.42;1.73;;;11.80;67.30;;;;;;2281843;56;21021;-68
2023/10/16 10:12:13;;;;;;;3.47;1.58;;;11.90;67.40;;;;;;2281136;55;20994;-67
2023/10/16 10:14:49;;;;;;;5.43;1.92;;;12.00;67.80;;;;;;2292823;55;21016;-67
2023/10/16 10:17:20;;;;;;;4.28;1.87;;;12.10;67.40;;;;;;2518825;54;21020;-67
2023/10/16 10:19:54;;;;;;;4.97;2.12;;;12.20;67.40;;;;;;2280894;56;20950;-67
2023/10/16 10:22:27;;;;;;;3.28;1.80;;;12.30;67.30;;;;;;2514794;55;21470;-68
2023/10/16 10:25:22;;;;;;;3.28;1.80;;;12.40;67.50;;;;;;2509996;54;22373;-71
2023/10/16 10:27:49;;;;;;;3.90;2.00;;;12.50;66.80;;;;;;2513144;54;21131;-69
2023/10/16 10:30:26;;;;;;;4.28;2.00;;;12.60;67.50;;;;;;2492869;54;20994;-67
2023/10/16 10:32:57;;;;;;;3.58;2.00;;;12.70;67.10;;;;;;2273836;55;21918;-68
2023/10/16 10:35:38;;;;;;;5.28;2.00;;;12.80;67.50;;;;;;2280085;55;20974;-68
2023/10/16 10:38:17;;;;;;;5.62;2.28;;;12.90;67.40;;;;;;2514780;55;21005;-69
2023/10/16 10:41:20;;;;;;;5.40;1.73;;;13.00;67.30;;;;;;2279986;55;21010;-70
2023/10/16 10:43:50;;;;;;;2.97;1.52;;;13.10;66.40;;;;;;2513230;55;20939;-67
2023/10/16 10:46:35;;;;;;;5.57;1.65;;;13.20;67.20;;;;;;2512537;55;21089;-66
2023/10/16 10:49:01;;;;;;;4.18;1.83;;;13.30;66.30;;;;;;2281693;55;20993;-67
2023/10/16 10:51:35;;;;;;;4.55;1.90;;;13.40;67.10;;;;;;2514131;54;20974;-68
2023/10/16 10:54:08;;;;;;;;;;;13.50;67.80;;;;;;2284806;55;20942;-67
2023/10/16 10:56:50;;;;;;;3.58;1.65;;;13.60;65.90;;;;;;2280771;55;20065;-67
2023/10/16 10:59:41;;;;;;;4.75;1.60;;;13.70;66.70;;;;;;2281072;56;21304;-67
2023/10/16 11:03:45;;;;;;;4.12;1.77;;;13.80;66.20;;;;;;2281405;56;21060;-67
2023/10/16 11:06:18;;;;;;;5.60;1.50;;;13.90;65.70;;;;;;2281683;55;20981;-67
2023/10/16 11:08:48;;;;;;;3.42;1.50;;;14.00;66.30;;;;;;2280082;55;21877;-67
2023/10/16 11:11:17;;;;;;;3.80;1.87;;;14.00;66.10;;;;;;2281132;55;21495;-67
2023/10/16 11:13:47;;;;;;;3.45;1.65;;;14.10;66.10;;;;;;2513232;55;21519;-69
2023/10/16 11:16:15;;;;;;;3.58;1.73;;;14.10;65.80;;;;;;2281260;55;21793;-67
2023/10/16 11:18:56;;;;;;;5.87;1.58;;;14.30;66.10;;;;;;2280949;56;21050;-66
2023/10/16 11:21:25;;;;;;;4.12;1.55;;;14.30;65.90;;;;;;2281169;55;20998;-68
2023/10/16 11:23:55;;;;;;;6.20;1.77;;;14.40;65.70;;;;;;2281213;55;21584;-68
2023/10/16 11:26:27;;;;;;;3.95;1.60;;;14.50;65.50;;;;;;2281664;56;20970;-67
2023/10/16 11:28:54;;;;;;;3.45;1.20;;;14.50;65.30;;;;;;2513645;55;21783;-69
2023/10/16 11:31:21;;;;;;;2.83;1.08;;;14.60;65.30;;;;;;2281759;55;21053;-67
2023/10/16 11:34:12;;;;;;;2.60;1.10;;;14.60;65.10;;;;;;2513641;55;21104;-70
2023/10/16 11:36:50;;;;;;;2.83;1.45;;;14.70;64.60;;;;;;2513531;55;20974;-68
2023/10/16 11:39:20;;;;;;;2.83;1.40;;;14.80;64.90;;;;;;2514155;55;20958;-67
2023/10/16 11:41:48;;;;;;;3.60;1.35;;;14.80;64.90;;;;;;2280250;56;20990;-68
2023/10/16 11:44:15;;;;;;;2.50;1.20;;;14.80;64.90;;;;;;2281278;56;21069;-69
2023/10/16 11:46:52;;;;;;;2.85;1.35;;;14.90;64.70;;;;;;2513069;55;20990;-68
2023/10/16 11:49:22;;;;;;;3.70;1.50;;;14.90;64.40;;;;;;2493231;54;21018;-68
2023/10/16 11:51:58;;;;;;;2.78;1.20;;;15.00;64.50;;;;;;2264897;55;21009;-68
2023/10/16 11:54:24;;;;;;;2.62;1.27;;;15.00;63.90;;;;;;2514332;55;21813;-69
2023/10/16 11:56:53;;;;;;;4.72;1.25;;;15.10;64.60;;;;;;2513469;55;21021;-68
2023/10/16 11:59:21;;;;;;;3.62;1.50;;;15.20;64.50;;;;;;2281462;56;20983;-66
2023/10/16 12:01:51;;;;;;;3.37;1.40;;;15.20;64.40;;;;;;2281053;55;20978;-67
2023/10/16 12:04:26;;;;;;;3.53;1.30;;;15.30;64.30;;;;;;2283262;55;21314;-70
2023/10/16 12:06:52;;;;;;;2.92;1.30;;;15.40;64.10;;;;;;2513807;55;20978;-67
2023/10/16 12:09:21;;;;;;;3.00;1.12;;;15.40;64.00;;;;;;2281345;55;21046;-69
2023/10/16 12:11:49;;;;;;;2.55;1.20;;;15.40;63.80;;;;;;2280732;55;20954;-68
2023/10/16 12:14:18;;;;;;;3.12;1.30;;;15.50;63.90;;;;;;2514346;55;21015;-68
2023/10/16 12:16:46;;;;;;;2.50;1.00;;;15.50;63.80;;;;;;2512973;55;22103;-68
2023/10/16 12:19:15;;;;;;;2.90;1.10;;;15.60;63.80;;;;;;2280871;55;20993;-68
2023/10/16 12:21:42;;;;;;;2.75;1.10;;;15.70;63.50;;;;;;2514197;55;22025;-69
2023/10/16 12:24:10;;;;;;;3.67;1.20;;;15.70;63.50;;;;;;2514847;55;21439;-68
2023/10/16 12:26:40;;;;;;;2.92;1.27;;;15.70;63.40;;;;;;2280840;55;20962;-65
2023/10/16 12:29:10;;;;;;;2.78;1.17;;;15.80;63.10;;;;;;2280960;54;21018;-67
2023/10/16 12:31:40;;;;;;;2.95;1.35;;;15.80;63.10;;;;;;2277347;55;20962;-66
2023/10/16 12:34:11;;;;;;;3.45;1.23;;;15.90;63.30;;;;;;2514422;55;22135;-66
2023/10/16 12:36:40;;;;;;;2.97;1.10;;;15.90;63.10;;;;;;2513971;55;20943;-69
2023/10/16 12:42:38;;;;;;;3.97;1.40;;;16.00;62.90;;;;;;2513768;55;21717;-68
2023/10/16 12:45:09;;;;;;;3.37;1.60;;;16.00;62.90;;;;;;2281228;56;21964;-66
2023/10/16 12:47:36;;;;;;;3.28;1.25;;;16.10;62.60;;;;;;2280892;55;20970;-66
2023/10/16 12:50:11;;;;;;;3.05;1.17;;;16.20;62.60;;;;;;2281342;56;20978;-65
2023/10/16 12:52:39;;;;;;;4.43;1.23;;;16.10;62.20;;;;;;2280655;56;20978;-64
2023/10/16 12:55:09;;;;;;;4.32;1.55;;;16.10;62.20;;;;;;2281219;56;20978;-68
2023/10/16 12:57:35;;;;;;;3.10;1.10;;;16.20;62.20;;;;;;2280630;55;21026;-65
2023/10/16 13:00:13;;;;;;;3.80;1.45;;;16.20;62.00;;;;;;2514626;55;20942;-65
2023/10/16 13:02:42;;;;;;;3.50;1.35;;;16.20;62.00;;;;;;2513832;55;20970;-67
2023/10/16 13:05:13;;;;;;;2.50;1.10;;;16.30;62.00;;;;;;2281844;55;20946;-67
2023/10/16 13:07:41;;;;;;;3.20;1.27;;;16.30;61.60;;;;;;2515003;55;20958;-66
2023/10/16 13:10:11;;;;;;;3.20;1.40;;;16.30;61.90;;;;;;2280920;56;21030;-66
2023/10/16 13:12:39;;;;;;;2.40;1.02;;;16.40;61.90;;;;;;2503582;54;21050;-66
2023/10/16 13:15:14;;;;;;;2.40;1.05;;;16.40;61.80;;;;;;2513983;54;20990;-66
2023/10/16 13:17:41;;;;;;;2.65;1.15;;;16.40;61.40;;;;;;2280765;55;21042;-66
2023/10/16 13:20:17;;;;;;;3.65;1.60;;;16.40;61.60;;;;;;2280879;55;21137;-66
2023/10/16 13:22:49;;;;;;;2.87;1.30;;;16.50;61.70;;;;;;2280773;56;20978;-65
2023/10/16 13:25:16;;;;;;;3.40;1.23;;;16.50;61.30;;;;;;2280703;56;21495;-66
2023/10/16 13:27:44;;;;;;;3.80;1.10;;;16.50;61.60;;;;;;2513503;55;21689;-66
2023/10/16 13:30:16;;;;;;;2.80;1.17;;;16.60;61.50;;;;;;2281242;56;21491;-68
2023/10/16 13:32:42;;;;;;;;;;;16.60;61.60;;;;;;2286132;55;21060;-65
2023/10/16 13:35:29;;;;;;;2.60;1.10;;;16.70;60.60;;;;;;2281059;55;20080;-65
2023/10/16 13:37:58;;;;;;;2.33;0.95;;;16.70;61.40;;;;;;2514063;55;21049;-68
2023/10/16 13:40:28;;;;;;;2.55;1.08;;;16.80;61.60;;;;;;2281734;56;20946;-65
2023/10/16 13:42:56;;;;;;;1.90;0.90;;;16.70;61.40;;;;;;2280129;56;21079;-65
2023/10/16 13:45:23;;;;;;;2.67;0.80;;;16.80;61.30;;;;;;2505470;54;20987;-66
2023/10/16 13:47:49;;;;;;;3.53;1.10;;;16.80;61.30;;;;;;2279940;55;21130;-66
2023/10/16 13:50:24;;;;;;;4.62;1.00;;;16.90;61.20;;;;;;2508184;55;20963;-65
2023/10/16 13:52:54;;;;;;;3.53;0.93;;;16.80;61.00;;;;;;2510850;55;20977;-66
2023/10/16 13:55:22;;;;;;;2.33;0.80;;;16.90;60.70;;;;;;2282271;55;21059;-64
2023/10/16 13:57:49;;;;;;;2.45;0.90;;;16.90;60.70;;;;;;2512937;55;20961;-67
2023/10/16 14:00:31;;;;;;;2.90;0.77;;;16.90;60.70;;;;;;2281415;56;20966;-66
2023/10/16 14:03:17;;;;;;;2.45;0.80;;;16.90;60.60;;;;;;2512996;55;20961;-66
2023/10/16 14:05:46;;;;;;;4.87;0.98;;;17.00;60.30;;;;;;2280868;56;21053;-66
2023/10/16 14:08:17;;;;;;;1.65;0.70;;;17.00;60.50;;;;;;2281610;55;21002;-67
2023/10/16 14:10:49;;;;;;;1.70;0.60;;;17.00;60.40;;;;;;2513957;55;21403;-67
2023/10/16 14:13:19;;;;;;;2.90;0.75;;;17.10;60.10;;;;;;2281507;55;20950;-65
2023/10/16 14:15:46;;;;;;;2.08;0.60;;;17.10;60.30;;;;;;2280139;55;21947;-69
2023/10/16 14:18:20;;;;;;;2.78;1.17;;;17.10;60.50;;;;;;2514420;55;20949;-67
2023/10/16 14:20:47;;;;;;;1.95;0.68;;;17.10;60.20;;;;;;2280735;56;20973;-66
2023/10/16 14:23:29;;;;;;;1.70;0.73;;;17.20;60.10;;;;;;2281408;55;20973;-65
2023/10/16 14:25:57;;;;;;;2.15;0.62;;;17.20;59.00;;;;;;2513710;55;21022;-66
2023/10/16 14:31:09;;;;;;;1.60;0.60;;;17.20;59.80;;;;;;2505064;54;21002;-64
2023/10/16 14:33:36;;;;;;;3.60;1.10;;;17.20;59.80;;;;;;2513809;55;21042;-65
2023/10/16 14:36:04;;;;;;;2.30;0.70;;;17.20;59.70;;;;;;2514169;55;21294;-65
2023/10/16 14:38:30;;;;;;;1.52;0.57;;;17.20;59.50;;;;;;2514470;55;21014;-65
2023/10/16 14:41:04;;;;;;;2.50;0.70;;;17.30;59.60;;;;;;2513997;55;20966;-66
2023/10/16 14:43:36;;;;;;;1.50;0.60;;;17.30;59.50;;;;;;2509677;55;21647;-67
2023/10/16 14:46:03;;;;;;;2.00;0.80;;;17.30;59.60;;;;;;2291407;55;20972;-67
2023/10/16 14:48:29;;;;;;;1.42;0.60;;;17.40;59.50;;;;;;2517108;54;21035;-65
2023/10/16 14:50:57;;;;;;;1.85;0.70;;;17.30;59.40;;;;;;2280504;56;21017;-65
2023/10/16 14:53:25;;;;;;;3.03;0.70;;;17.30;59.40;;;;;;2281042;55;20930;-65